SBTTSBEG

Guest
Details From SBTT - Tabatinga
To SBEG - Eduardo Gomes
Flight Number -
Tags Generated
Created
Modified
Stats Distance 597 nm / 1,106 km
Max Altitude 0 ft / 0 m
Waypoints 4
Social Downloads 1
Likes 0
Share VATSIM

Download

Looking for another format? Having issues loading an existing format? Contact us
Advertisement - Login to hide

Notes

Generated

Route

SBTT TFE R2923 SBEG

ID Type Via Altitude Latitude Longitude Leg Dist Tot Dist Heading (true) Name
O SBTT APT - 0 ft / 0 m -4.25157˚ -69.94463˚ - 0 nm - -
TFE VOR - 0 ft / 0 m -3.38783˚ -64.72800˚ 316 nm 316 nm 81° / 80° TEFE VOR-DME
R2923 FIX - 0 ft / 0 m -3.03858˚ -60.06189˚ 280 nm 597 nm 86° / 86° -
O SBEG APT - 0 ft / 0 m -3.03858˚ -60.06189˚ 0 nm 597 nm 0° / 180° -

Altitude Profile

Advertisement - Login to hide

Weather


0- 5 10 15 20 25 30 35+ Temperature / ° C

Clouds and Precipitation
Forecast for 2017-12-14 00:00 UTC. Updated an hour ago

Ground ~20,000 ft ~40,000 ft Winds

SBTT

Details ICAO SBTT (TBT)
Name TABATINGA
Region Brazil
Timezone America/Eirunepe (UTC-5.0)
Stats Elevation 279 ft / 85 m (AMSL)
Location -4.255669° -69.935829°
Runways 1
Magnetic Variation 9.007° W

METAR

SBTT 132200Z 33003KT CAVOK 30/22 Q1008

Decode

TAF

TAF SBTT 131600Z 1318/1418 33005KT 9999 SCT020 TX31/1318Z TN20/1406Z BECMG 1319/1321 SCT020 FEW025TCU BECMG 1323/1401 28005KT SCT015 BECMG 1404/1406 00000KT FEW010 BECMG 1409/1411 03005KT CAVOK RMK PEN

Decode

Departure Runways

ID Width Length Bearing (true) Bearing (mag) Surface Threshold Offset Overrun Length
12 105 ft / 32 m 7,067 ft / 2,154 m 115.07° 124.08° Asphalt 0 ft / 0 m 0 ft / 0 m
30 105 ft / 32 m 7,067 ft / 2,154 m 295.06° 304.07° Asphalt 0 ft / 0 m 0 ft / 0 m

SBEG

Details ICAO SBEG (MAO)
Name Eduardo Gomes
Region Brazil
Timezone America/Manaus (UTC-4.0)
Stats Elevation 264 ft / 80 m (AMSL)
Location -3.038611° -60.049723°
Runways 1
Magnetic Variation 15.761° W

METAR

SBEG 132200Z 32003KT 9999 SCT015 FEW025TCU SCT100 25/24 Q1009

Decode

TAF

TAF SBEG 131600Z 1318/1418 05008KT 9999 SCT020 FEW025TCU TX31/1319Z TN24/1407Z PROB30 1319/1321 TS SCT020 FEW025CB BECMG 1322/1324 13005KT FEW020 BECMG 1403/1405 00000KT CAVOK BECMG 1406/1408 9999 SCT010 BECMG 1412/1414 06005KT SCT015 RMK PEN

Decode

Destination Runways

ID Width Length Bearing (true) Bearing (mag) Surface Threshold Offset Overrun Length
10 148 ft / 45 m 8,867 ft / 2,703 m 90.13° 105.89° Asphalt 0 ft / 0 m 215 ft / 66 m
28 148 ft / 45 m 8,867 ft / 2,703 m 270.13° 285.89° Asphalt 0 ft / 0 m 250 ft / 76 m

Approach Navaids

Runway Type Ident Frequency Range Bearing (true) Bearing (mag) Slope Elevation
10 Localiser IEG 110.30 MHz 18 nm / 33 km 90.55° 106.31° - 275 ft / 84 m (AMSL)
10 Glidescope IEG 110.30 MHz 10 nm / 19 km 90.13° 105.89° 3.04° 275 ft / 84 m (AMSL)
10 DME IEG 110.30 MHz 18 nm / 33 km - - - 264 ft / 80 m (AMSL)

Popular Alternatives